createdAt,value
2019-03-18T00:00:32.293Z,1.20
2019-03-18T00:03:06.736Z,1.07
2019-03-18T00:05:41.262Z,1.30
2019-03-18T00:08:15.708Z,1.27
2019-03-18T00:10:50.279Z,1.30
2019-03-18T00:13:24.689Z,1.30
2019-03-18T00:15:58.963Z,1.50
2019-03-18T00:18:33.641Z,1.33
2019-03-18T00:21:08.084Z,1.30
2019-03-18T00:23:42.331Z,1.30
2019-03-18T00:26:16.696Z,1.43
2019-03-18T00:28:51.147Z,1.23
2019-03-18T00:31:25.711Z,1.23
2019-03-18T00:36:32.901Z,1.25
2019-03-18T00:41:42.322Z,1.10
2019-03-18T00:44:16.722Z,1.00
2019-03-18T00:46:50.973Z,1.30
2019-03-18T00:49:26.143Z,1.10
2019-03-18T00:52:40.657Z,1.00
2019-03-18T00:55:15.344Z,1.20
2019-03-18T00:57:49.899Z,0.90
2019-03-18T01:02:56.960Z,1.15
2019-03-18T01:05:31.278Z,1.30
2019-03-18T01:08:05.648Z,1.20
2019-03-18T01:10:41.073Z,1.37
2019-03-18T01:13:15.666Z,1.00
2019-03-18T01:15:49.948Z,1.00
2019-03-18T01:18:24.262Z,1.07
2019-03-18T01:20:58.735Z,0.80
2019-03-18T01:23:32.969Z,0.93
2019-03-18T01:28:40.087Z,1.07
2019-03-18T01:31:14.341Z,0.90
2019-03-18T01:33:48.766Z,1.10
2019-03-18T01:38:55.950Z,1.30
2019-03-18T01:44:03.133Z,0.90
2019-03-18T01:46:37.509Z,1.00
2019-03-18T01:49:11.880Z,0.87
2019-03-18T01:54:19.284Z,0.80
2019-03-18T01:56:53.698Z,1.00
2019-03-18T01:59:28.053Z,1.17
2019-03-18T02:02:02.628Z,0.90
2019-03-18T02:04:36.938Z,1.00
2019-03-18T02:07:11.284Z,0.90
2019-03-18T02:09:45.756Z,1.07
2019-03-18T02:14:54.130Z,1.60
2019-03-18T02:17:28.716Z,1.10
2019-03-18T02:20:03.540Z,1.00
2019-03-18T02:22:37.935Z,0.90
2019-03-18T02:27:45.304Z,0.90
2019-03-18T02:30:20.146Z,0.87
2019-03-18T02:32:54.672Z,0.90
2019-03-18T02:35:28.955Z,1.20
2019-03-18T02:38:03.331Z,1.00
2019-03-18T02:40:38.713Z,1.35
2019-03-18T02:43:13.143Z,1.25
2019-03-18T02:45:47.590Z,0.90
2019-03-18T02:48:22.068Z,1.00
2019-03-18T02:50:56.703Z,1.00
2019-03-18T02:53:31.193Z,1.00
2019-03-18T02:56:05.645Z,1.30
2019-03-18T02:58:39.950Z,1.00
2019-03-18T03:05:34.704Z,1.10
2019-03-18T03:08:09.267Z,0.80
2019-03-18T03:10:43.749Z,0.97
2019-03-18T03:13:18.281Z,1.10
2019-03-18T03:15:52.675Z,1.00
2019-03-18T03:18:27.086Z,1.20
2019-03-18T03:21:01.627Z,1.00
2019-03-18T03:23:35.948Z,0.80
2019-03-18T03:26:10.284Z,1.65
2019-03-18T03:28:44.712Z,1.07
2019-03-18T03:31:19.958Z,0.83
2019-03-18T03:33:53.976Z,1.00
2019-03-18T03:36:28.300Z,0.90
2019-03-18T03:39:02.707Z,0.87
2019-03-18T03:41:37.284Z,0.93
2019-03-18T03:44:11.707Z,0.80
2019-03-18T03:46:46.118Z,0.93
2019-03-18T03:49:20.681Z,0.90
2019-03-18T03:51:54.953Z,1.00
2019-03-18T03:57:02.038Z,0.88
2019-03-18T04:01:01.349Z,1.05
2019-03-18T04:03:38.505Z,1.35
2019-03-18T04:06:12.111Z,1.20
2019-03-18T04:08:46.676Z,0.67
2019-03-18T04:11:21.118Z,0.80
2019-03-18T04:13:55.586Z,0.97
2019-03-18T04:16:29.949Z,0.93
2019-03-18T04:21:36.897Z,0.80
2019-03-18T04:24:11.122Z,0.90
2019-03-18T04:26:45.680Z,0.70
2019-03-18T04:29:22.620Z,0.90
2019-03-18T04:31:56.970Z,0.87
2019-03-18T04:34:31.315Z,0.87
2019-03-18T04:37:05.725Z,1.00
2019-03-18T04:39:40.116Z,1.00
2019-03-18T04:42:14.622Z,1.20
2019-03-18T04:44:48.947Z,0.97
2019-03-18T04:49:56.797Z,1.20
2019-03-18T04:55:03.942Z,1.02
2019-03-18T05:00:11.660Z,0.90
2019-03-18T05:05:18.946Z,0.83
2019-03-18T05:12:59.275Z,0.80
2019-03-18T05:15:34.888Z,1.40
2019-03-18T05:20:42.256Z,1.00
2019-03-18T05:23:16.644Z,1.10
2019-03-18T05:25:50.946Z,1.07
2019-03-18T05:30:58.195Z,1.50
2019-03-18T05:33:32.647Z,1.40
2019-03-18T05:36:06.944Z,1.23
2019-03-18T05:41:13.947Z,1.23
2019-03-18T05:43:48.698Z,1.10
2019-03-18T05:46:23.273Z,1.15
2019-03-18T05:48:57.732Z,1.07
2019-03-18T05:51:32.074Z,1.17
2019-03-18T05:54:06.708Z,1.67
2019-03-18T05:56:41.066Z,1.65
2019-03-18T05:59:15.314Z,1.50
2019-03-18T06:01:49.746Z,1.50
2019-03-18T06:04:24.134Z,1.60
2019-03-18T06:06:58.661Z,1.43
2019-03-18T06:09:33.292Z,1.83
2019-03-18T06:12:07.713Z,1.37
2019-03-18T06:14:41.944Z,1.10
2019-03-18T06:19:49.691Z,1.63
2019-03-18T06:22:24.155Z,1.90
2019-03-18T06:24:58.620Z,1.90
2019-03-18T06:27:32.946Z,1.50
2019-03-18T06:32:40.642Z,1.87
2019-03-18T06:35:15.102Z,1.80
2019-03-18T06:37:49.687Z,1.93
2019-03-18T06:40:23.945Z,1.60
2019-03-18T06:45:31.130Z,1.65
2019-03-18T06:48:05.767Z,1.73
2019-03-18T06:50:40.132Z,1.60
2019-03-18T06:53:14.676Z,1.60
2019-03-18T06:55:49.119Z,1.70
2019-03-18T06:58:23.751Z,1.97
2019-03-18T07:00:58.081Z,1.90
2019-03-18T07:03:32.417Z,2.00
2019-03-18T07:06:06.781Z,1.83
2019-03-18T07:08:41.124Z,1.90
2019-03-18T07:11:15.678Z,3.43
2019-03-18T07:13:50.105Z,1.50
2019-03-18T07:16:24.316Z,1.30
2019-03-18T07:18:58.676Z,1.60
2019-03-18T07:21:32.944Z,1.97
2019-03-18T07:24:07.125Z,1.75
2019-03-18T07:26:41.663Z,1.83
2019-03-18T07:29:16.277Z,1.80
2019-03-18T07:31:50.671Z,1.60
2019-03-18T07:36:57.946Z,1.80
2019-03-18T07:39:32.282Z,1.77
2019-03-18T07:42:06.664Z,1.40
2019-03-18T07:44:41.106Z,1.70
2019-03-18T07:47:15.660Z,2.10
2019-03-18T07:49:50.100Z,1.60
2019-03-18T07:56:41.715Z,1.60
2019-03-18T08:01:49.130Z,1.60
2019-03-18T08:04:23.643Z,1.70
2019-03-18T08:06:57.944Z,1.60
2019-03-18T08:09:32.606Z,1.50
2019-03-18T08:12:06.936Z,1.72
2019-03-18T08:14:41.618Z,1.45
2019-03-18T08:17:16.076Z,1.50
2019-03-18T08:19:50.667Z,1.30
2019-03-18T08:22:26.122Z,2.00
2019-03-18T08:25:00.605Z,1.40
2019-03-18T08:27:34.942Z,1.37
2019-03-18T08:30:09.711Z,1.42
2019-03-18T08:32:44.096Z,1.40
2019-03-18T08:35:18.643Z,1.33
2019-03-18T08:37:54.853Z,1.30
2019-03-18T08:40:29.278Z,1.70
2019-03-18T08:43:03.692Z,1.63
2019-03-18T08:45:38.069Z,1.60
2019-03-18T08:48:12.635Z,1.33
2019-03-18T08:50:47.058Z,1.50
2019-03-18T08:53:21.721Z,1.73
2019-03-18T08:55:56.305Z,1.90
2019-03-18T08:58:30.782Z,1.60
2019-03-18T09:03:37.918Z,1.57
2019-03-18T09:08:45.943Z,1.50
2019-03-18T09:13:53.114Z,1.60
2019-03-18T09:16:27.617Z,1.40
2019-03-18T09:19:08.447Z,1.37
2019-03-18T09:21:37.929Z,1.40
2019-03-18T09:24:12.082Z,1.20
2019-03-18T09:26:46.609Z,1.63
2019-03-18T09:29:20.943Z,1.00
2019-03-18T09:31:55.115Z,1.37
2019-03-18T09:34:30.340Z,1.50
2019-03-18T09:37:04.689Z,1.35
2019-03-18T09:39:38.937Z,1.37
2019-03-18T09:42:13.278Z,1.62
2019-03-18T09:44:47.660Z,1.83
2019-03-18T09:47:21.935Z,1.37
2019-03-18T09:49:56.093Z,1.20
2019-03-18T09:52:30.367Z,1.47
2019-03-18T09:55:04.872Z,1.27
2019-03-18T10:00:12.519Z,1.50
2019-03-18T10:02:46.925Z,1.37
2019-03-18T10:05:21.283Z,1.40
2019-03-18T10:07:55.889Z,1.30
2019-03-18T10:13:02.954Z,1.67
2019-03-18T10:18:10.245Z,1.20
2019-03-18T10:20:44.766Z,1.67
2019-03-18T10:23:19.103Z,1.60
2019-03-18T10:25:53.343Z,1.47
2019-03-18T10:28:27.697Z,1.20
2019-03-18T10:31:02.116Z,1.47
2019-03-18T10:33:36.641Z,2.13
2019-03-18T10:36:11.091Z,1.50
2019-03-18T10:38:45.673Z,1.60
2019-03-18T10:41:20.093Z,1.60
2019-03-18T10:43:54.683Z,1.30
2019-03-18T10:46:29.111Z,1.27
2019-03-18T10:49:03.690Z,1.20
2019-03-18T10:54:10.985Z,1.50
2019-03-18T10:56:45.651Z,1.10
2019-03-18T10:59:20.108Z,1.27
2019-03-18T11:01:54.324Z,1.30
2019-03-18T11:04:28.678Z,1.40
2019-03-18T11:07:03.118Z,1.20
2019-03-18T11:09:37.684Z,1.73
2019-03-18T11:12:12.185Z,1.17
2019-03-18T11:14:46.720Z,1.67
2019-03-18T11:17:21.086Z,1.43
2019-03-18T11:19:58.696Z,1.50
2019-03-18T11:22:31.339Z,1.43
2019-03-18T11:25:06.262Z,1.60
2019-03-18T11:27:40.721Z,1.27
2019-03-18T11:30:15.791Z,1.20
2019-03-18T11:32:50.109Z,1.50
2019-03-18T11:35:24.638Z,1.40
2019-03-18T11:37:59.105Z,1.40
2019-03-18T11:40:33.301Z,1.60
2019-03-18T11:43:07.697Z,1.57
2019-03-18T11:45:42.926Z,1.10
2019-03-18T11:48:17.275Z,1.33
2019-03-18T11:50:51.660Z,1.40
2019-03-18T11:53:25.956Z,1.32
2019-03-18T11:58:33.136Z,1.40
2019-03-18T12:01:07.691Z,1.30
2019-03-18T12:03:41.946Z,1.25
2019-03-18T12:06:16.263Z,1.42
2019-03-18T12:08:50.672Z,1.53
2019-03-18T12:11:25.101Z,1.05
2019-03-18T12:14:00.683Z,1.37
2019-03-18T12:16:35.246Z,1.62
2019-03-18T12:19:09.652Z,1.00
2019-03-18T12:21:43.947Z,1.10
2019-03-18T12:24:18.264Z,0.98
2019-03-18T12:26:52.699Z,1.00
2019-03-18T12:29:27.116Z,0.90
2019-03-18T12:32:01.289Z,1.10
2019-03-18T12:34:35.707Z,1.00
2019-03-18T12:37:10.282Z,1.55
2019-03-18T12:39:44.679Z,1.10
2019-03-18T12:42:18.959Z,1.27
2019-03-18T12:44:53.106Z,1.10
2019-03-18T12:47:27.668Z,1.10
2019-03-18T12:50:02.109Z,1.10
2019-03-18T12:52:36.722Z,0.95
2019-03-18T12:57:43.941Z,1.10
2019-03-18T13:00:23.281Z,0.90
2019-03-18T13:02:57.735Z,0.97
2019-03-18T13:05:31.939Z,1.40
2019-03-18T13:10:38.949Z,1.30
2019-03-18T13:13:13.137Z,1.05
2019-03-18T13:15:47.692Z,0.87
2019-03-18T13:18:22.075Z,0.93
2019-03-18T13:21:07.262Z,1.20
2019-03-18T13:23:32.795Z,1.03
2019-03-18T13:28:39.948Z,1.20
2019-03-18T13:31:14.312Z,1.20
2019-03-18T13:33:48.754Z,4.05
2019-03-18T13:36:25.339Z,1.40
2019-03-18T13:38:59.121Z,1.00
2019-03-18T13:41:33.311Z,1.17
2019-03-18T13:44:07.924Z,1.50
2019-03-18T13:46:42.256Z,1.13
2019-03-18T13:49:16.710Z,1.40
2019-03-18T13:51:51.066Z,1.47
2019-03-18T13:54:25.328Z,1.40
2019-03-18T13:56:59.746Z,1.40
2019-03-18T13:59:34.101Z,1.20
2019-03-18T14:02:08.696Z,1.27
2019-03-18T14:04:43.283Z,1.13
2019-03-18T14:07:17.701Z,1.37
2019-03-18T14:09:52.020Z,1.20
2019-03-18T14:12:26.356Z,1.37
2019-03-18T14:15:00.886Z,1.40
2019-03-18T14:17:35.129Z,1.22
2019-03-18T14:20:10.681Z,1.33
2019-03-18T14:22:45.250Z,6.10
2019-03-18T14:25:19.777Z,1.13
2019-03-18T14:30:26.945Z,1.52
2019-03-18T14:33:01.281Z,1.50
2019-03-18T14:35:35.729Z,1.63
2019-03-18T14:38:10.089Z,1.53
2019-03-18T14:40:44.681Z,1.43
2019-03-18T14:43:19.271Z,1.60
2019-03-18T14:45:53.682Z,1.30
2019-03-18T14:48:27.942Z,1.30
2019-03-18T14:51:02.332Z,1.12
2019-03-18T14:53:36.677Z,1.10
2019-03-18T14:56:10.946Z,1.40
2019-03-18T14:58:45.109Z,1.30
2019-03-18T15:01:19.694Z,1.40
2019-03-18T15:06:26.949Z,1.20
2019-03-18T15:09:01.320Z,1.60
2019-03-18T15:11:36.943Z,1.50
2019-03-18T15:14:11.128Z,1.50
2019-03-18T15:16:45.632Z,1.67
2019-03-18T15:19:19.941Z,1.30
2019-03-18T15:21:58.697Z,1.40
2019-03-18T15:24:30.628Z,1.40
2019-03-18T15:27:05.108Z,1.30
2019-03-18T15:29:40.706Z,1.40
2019-03-18T15:33:47.314Z,1.22
2019-03-18T15:36:21.948Z,1.30
2019-03-18T15:44:02.285Z,1.62
2019-03-18T15:46:36.887Z,1.90
2019-03-18T15:51:44.256Z,1.30
2019-03-18T15:54:18.714Z,1.60
2019-03-18T15:56:53.102Z,1.60
2019-03-18T15:59:27.632Z,1.82
2019-03-18T16:02:03.099Z,1.60
2019-03-18T16:04:37.684Z,2.27
2019-03-18T16:07:12.107Z,1.77
2019-03-18T16:09:46.723Z,1.27
2019-03-18T16:12:21.205Z,1.30
2019-03-18T16:14:55.737Z,1.80
2019-03-18T16:20:05.274Z,0.90
2019-03-18T16:22:40.101Z,1.20
2019-03-18T16:25:15.286Z,1.07
2019-03-18T16:27:49.946Z,1.33
2019-03-18T16:30:24.294Z,0.70
2019-03-18T16:32:59.163Z,1.17
2019-03-18T16:35:33.878Z,1.00
2019-03-18T16:40:41.278Z,0.80
2019-03-18T16:43:16.281Z,1.00
2019-03-18T16:45:50.776Z,1.10
2019-03-18T16:48:25.282Z,1.63
2019-03-18T16:50:59.921Z,1.17
2019-03-18T16:56:07.701Z,1.07
2019-03-18T17:01:14.949Z,1.15
2019-03-18T17:03:49.275Z,1.10
2019-03-18T17:06:23.746Z,1.30
2019-03-18T17:11:31.680Z,1.33
2019-03-18T17:14:06.359Z,1.10
2019-03-18T17:16:41.272Z,1.20
2019-03-18T17:19:15.712Z,1.30
2019-03-18T17:21:50.267Z,1.70
2019-03-18T17:24:24.285Z,1.93
2019-03-18T17:26:58.993Z,1.70
2019-03-18T17:29:33.760Z,1.50
2019-03-18T17:34:41.104Z,1.53
2019-03-18T17:37:15.651Z,1.60
2019-03-18T17:39:50.278Z,1.55
2019-03-18T17:42:24.685Z,2.92
2019-03-18T17:44:59.092Z,1.80
2019-03-18T17:47:33.623Z,1.53
2019-03-18T17:50:09.308Z,1.60
2019-03-18T17:52:43.853Z,1.80
2019-03-18T17:57:51.640Z,2.33
2019-03-18T18:00:32.572Z,2.30
2019-03-18T18:05:40.329Z,1.90
2019-03-18T18:08:14.953Z,1.97
2019-03-18T18:10:51.281Z,2.07
2019-03-18T18:13:25.882Z,1.93
2019-03-18T18:21:06.270Z,1.80
2019-03-18T18:23:40.941Z,1.90
2019-03-18T18:26:15.315Z,1.57
2019-03-18T18:28:49.877Z,2.53
2019-03-18T18:33:57.268Z,1.93
2019-03-18T18:36:31.691Z,2.10
2019-03-18T18:39:07.665Z,1.90
2019-03-18T18:41:42.267Z,2.47
2019-03-18T18:44:16.736Z,2.17
2019-03-18T18:46:51.247Z,2.33
2019-03-18T18:49:25.718Z,1.97
2019-03-18T18:52:00.122Z,2.20
2019-03-18T18:54:34.942Z,2.10
2019-03-18T18:57:09.268Z,2.00
2019-03-18T18:59:43.703Z,1.90
2019-03-18T19:02:18.280Z,1.77
2019-03-18T19:04:52.767Z,2.57
2019-03-18T19:07:27.342Z,2.20
2019-03-18T19:10:02.112Z,2.10
2019-03-18T19:12:37.838Z,2.20
2019-03-18T19:17:48.345Z,1.67
2019-03-18T19:20:22.848Z,2.97
2019-03-18T19:22:57.280Z,2.77
2019-03-18T19:25:31.647Z,2.20
2019-03-18T19:28:06.323Z,2.10
2019-03-18T19:30:41.941Z,2.30
2019-03-18T19:33:16.356Z,2.12
2019-03-18T19:35:51.163Z,2.92
2019-03-18T19:38:25.752Z,2.40
2019-03-18T19:43:33.281Z,2.13
2019-03-18T19:46:08.280Z,2.00
2019-03-18T19:48:42.744Z,2.27
2019-03-18T19:51:17.135Z,2.03
2019-03-18T19:53:51.635Z,2.30
2019-03-18T19:56:26.285Z,2.42
2019-03-18T19:59:00.865Z,2.87
2019-03-18T20:01:35.327Z,2.80
2019-03-18T20:04:09.870Z,2.07
2019-03-18T20:06:44.281Z,2.40
2019-03-18T20:09:19.322Z,2.10
2019-03-18T20:11:53.954Z,2.52
2019-03-18T20:14:28.273Z,2.60
2019-03-18T20:17:03.267Z,2.75
2019-03-18T20:19:37.938Z,2.23
2019-03-18T20:24:46.277Z,2.50
2019-03-18T20:27:20.680Z,2.33
2019-03-18T20:29:55.169Z,2.80
2019-03-18T20:32:29.686Z,2.83
2019-03-18T20:35:04.277Z,2.30
2019-03-18T20:37:38.940Z,2.23
2019-03-18T20:40:14.704Z,2.47
2019-03-18T20:42:50.286Z,2.80
2019-03-18T20:45:26.108Z,2.40
2019-03-18T20:48:01.300Z,2.50
2019-03-18T20:50:35.965Z,2.67
2019-03-18T20:53:10.399Z,2.17
2019-03-18T20:55:44.942Z,2.30
2019-03-18T20:58:19.282Z,2.55
2019-03-18T21:00:53.939Z,2.17
2019-03-18T21:03:28.269Z,2.10
2019-03-18T21:06:02.777Z,2.10
2019-03-18T21:11:10.146Z,2.10
2019-03-18T21:13:44.703Z,2.37
2019-03-18T21:16:19.287Z,2.35
2019-03-18T21:18:53.718Z,2.43
2019-03-18T21:21:29.111Z,2.20
2019-03-18T21:24:03.707Z,2.23
2019-03-18T21:29:27.720Z,2.45
2019-03-18T21:32:02.290Z,1.93
2019-03-18T21:34:36.934Z,2.27
2019-03-18T21:37:11.867Z,2.07
2019-03-18T21:39:46.638Z,2.13
2019-03-18T21:42:20.948Z,2.50
2019-03-18T21:44:56.473Z,2.20
2019-03-18T21:47:30.942Z,2.45
2019-03-18T21:50:05.573Z,2.70
2019-03-18T21:52:39.965Z,2.23
2019-03-18T21:55:14.747Z,2.27
2019-03-18T22:00:22.285Z,2.00
2019-03-18T22:02:56.761Z,2.37
2019-03-18T22:05:31.269Z,2.70
2019-03-18T22:08:05.719Z,2.53
2019-03-18T22:10:40.202Z,2.50
2019-03-18T22:14:15.893Z,2.17
2019-03-18T22:19:23.707Z,3.10
2019-03-18T22:21:59.152Z,2.00
2019-03-18T22:24:44.554Z,2.03
2019-03-18T22:27:10.111Z,2.40
2019-03-18T22:32:19.307Z,2.00
2019-03-18T22:34:53.712Z,2.42
2019-03-18T22:37:28.370Z,2.60
2019-03-18T22:40:02.959Z,2.17
2019-03-18T22:42:37.649Z,2.20
2019-03-18T22:45:12.660Z,2.52
2019-03-18T22:47:47.131Z,2.70
2019-03-18T22:50:22.778Z,2.27
2019-03-18T22:52:57.289Z,2.80
2019-03-18T22:55:32.751Z,2.47
2019-03-18T22:58:07.288Z,2.50
2019-03-18T23:02:14.972Z,2.52
2019-03-18T23:04:50.291Z,2.33
2019-03-18T23:07:25.202Z,2.50
2019-03-18T23:09:59.801Z,2.20
2019-03-18T23:12:34.303Z,2.62
2019-03-18T23:15:09.950Z,2.70
2019-03-18T23:17:44.893Z,2.67
2019-03-18T23:20:19.295Z,2.07
2019-03-18T23:22:53.932Z,2.60
2019-03-18T23:25:28.648Z,2.12
2019-03-18T23:30:37.696Z,2.57
2019-03-18T23:38:18.976Z,2.87
2019-03-18T23:40:53.745Z,2.30
2019-03-18T23:46:01.206Z,2.40
2019-03-18T23:48:35.863Z,2.30
2019-03-18T23:51:10.708Z,2.47
2019-03-18T23:53:46.118Z,2.23
2019-03-18T23:56:20.742Z,2.07
